Belleville, Michigan
Current Conditions -  °F | °C
As of 12:53 AM on Thursday 23 Oct 2014 (Local Time) from KYIP Reporting Station
Clear Clear  
Wind Chill: 37°   Ceiling: Unl
Heat Index: 40°   Visibility: 10mi
Dew Point: 34°   Wind: 5mph
Humidity: 79%   Direction: 330°NNW
Pressure: 30.29"   Gusts: NA
Location:  42.2°N, 83.48°W
Report Text: KYIP 230453Z 33004KT 10SM CLR 04/01 A3029 RMK AO2 SLP258 T00440011 401610033
Loading
Personal Weather Stations






























Interactive Weather Map
Tropical Storm Tracking
New forecast layout! Learn more

10-Day Weather Forecast

Advertisements
Track Severe Weather on mobile